| Date | Time | Temp. (oF) | Dew Point (oF) | Rel. Hum. (%) | Press. (in.) | Wind Dir. | Wind Speed (mph) | Hourly Rainfall (in.) |
|
|---|---|---|---|---|---|---|---|---|---|
| 1 | 06/09 | 00:00 | 63 | 56 | 80 | 30.24 | S | 1 | 0.00 |
| 2 | 06/08 | 23:00 | 64 | 55 | 75 | 30.25 | S | 1 | 0.00 |
| 3 | 06/08 | 22:00 | 65 | 56 | 73 | 30.24 | S | 4 | 0.00 |
| 4 | 06/08 | 21:00 | 67 | 56 | 69 | 30.24 | S | 2 | 0.00 |
| 5 | 06/08 | 20:00 | 70 | 57 | 65 | 30.22 | S | 7 | 0.00 |
| 6 | 06/08 | 19:00 | 72 | 57 | 60 | 30.21 | S | 5 | 0.00 |
| 7 | 06/08 | 18:00 | 74 | 58 | 59 | 30.23 | SSW | 7 | 0.00 |
| 8 | 06/08 | 17:00 | 74 | 57 | 57 | 30.25 | S | 4 | 0.00 |
| 9 | 06/08 | 16:00 | 74 | 56 | 54 | 30.25 | SSW | 2 | 0.00 |
| 10 | 06/08 | 15:00 | 73 | 56 | 57 | 30.26 | S | 4 | 0.00 |
| 11 | 06/08 | 14:00 | 72 | 57 | 60 | 30.28 | SW | 1 | 0.00 |
| 12 | 06/08 | 13:00 | 71 | 56 | 61 | 30.30 | ESE | 4 | 0.00 |
| 13 | 06/08 | 12:00 | 69 | 57 | 66 | 30.32 | SSW | 0 | 0.00 |
| 14 | 06/08 | 11:00 | 68 | 57 | 68 | 30.32 | SSE | 5 | 0.00 |
| 15 | 06/08 | 10:00 | 63 | 52 | 68 | 30.34 | ESE | 6 | 0.00 |
| 16 | 06/08 | 09:00 | 60 | 54 | 82 | 30.35 | S | 4 | 0.00 |
| 17 | 06/08 | 08:00 | 58 | 54 | 89 | 30.35 | ESE | 3 | 0.00 |
| 18 | 06/08 | 07:00 | 57 | 55 | 96 | 30.33 | SSW | 3 | 0.00 |
| 19 | 06/08 | 06:00 | 56 | 54 | 96 | 30.32 | ESE | 1 | 0.00 |
| 20 | 06/08 | 05:00 | 57 | 55 | 95 | 30.30 | ENE | 0 | 0.00 |
| 21 | 06/08 | 04:00 | 58 | 56 | 94 | 30.29 | ESE | 4 | 0.00 |
| 22 | 06/08 | 03:00 | 58 | 55 | 93 | 30.29 | SSE | 2 | 0.00 |
| 23 | 06/08 | 02:00 | 58 | 55 | 90 | 30.27 | SSE | 1 | 0.00 |
| 24 | 06/08 | 01:00 | 59 | 56 | 90 | 30.26 | SSE | 3 | 0.00 |